Time;durP1;ratioP1;P1;durP2;ratioP2;P2;SDS_P1;SDS_P2;PMS_P1;PMS_P2;Temp;Humidity;BMP_temperature;BMP_pressure;BME280_temperature;BME280_humidity;BME280_pressure;Samples;Min_cycle;Max_cycle;Signal;HPM_P1;HPM_P2
2022/05/31 00:02:00;;;;;;;5.78;2.00;;;15.80;89.60;;;;;;5032872;28;20233;-52
2022/05/31 00:04:28;;;;;;;2.75;1.60;;;15.80;89.50;;;;;;5050900;28;20725;-52
2022/05/31 00:06:58;;;;;;;3.25;1.55;;;15.80;89.60;;;;;;5052812;28;20199;-35
2022/05/31 00:09:26;;;;;;;2.50;1.42;;;15.80;89.60;;;;;;5053359;28;20203;-35
2022/05/31 00:11:55;;;;;;;2.97;1.43;;;15.80;89.60;;;;;;5052037;28;20231;-35
2022/05/31 00:14:23;;;;;;;4.18;1.90;;;15.80;89.70;;;;;;5049169;28;20719;-35
2022/05/31 00:16:53;;;;;;;4.25;1.83;;;15.80;89.80;;;;;;5046125;28;20627;-35
2022/05/31 00:19:21;;;;;;;2.70;1.40;;;15.80;89.80;;;;;;5046735;28;20518;-35
2022/05/31 00:22:11;;;;;;;3.53;1.85;;;15.80;89.90;;;;;;5039318;28;20970;-36
2022/05/31 00:24:39;;;;;;;2.38;1.58;;;15.70;89.80;;;;;;5067262;28;20203;-35
2022/05/31 00:27:08;;;;;;;3.95;1.70;;;15.70;89.80;;;;;;5066651;28;20323;-35
2022/05/31 00:29:36;;;;;;;3.33;1.90;;;15.70;89.90;;;;;;5063423;28;20203;-35
2022/05/31 00:32:07;;;;;;;3.17;1.80;;;15.70;89.90;;;;;;5055821;28;20264;-35
2022/05/31 00:34:43;;;;;;;4.50;1.73;;;15.70;90.00;;;;;;5059063;28;20265;-35
2022/05/31 00:37:11;;;;;;;4.25;1.80;;;15.70;90.00;;;;;;5043245;28;20208;-36
2022/05/31 00:39:41;;;;;;;3.13;1.80;;;15.70;90.00;;;;;;5044667;28;20276;-35
2022/05/31 00:42:15;;;;;;;4.22;1.70;;;15.70;90.10;;;;;;5034119;28;20221;-35
2022/05/31 00:44:43;;;;;;;1.83;1.38;;;15.70;90.10;;;;;;5052076;28;20299;-36
2022/05/31 00:47:25;;;;;;;3.50;1.88;;;15.60;90.00;;;;;;5039593;28;20215;-35
2022/05/31 00:50:06;;;;;;;1.55;1.35;;;15.60;90.10;;;;;;5060113;28;20223;-35
2022/05/31 00:52:38;;;;;;;4.25;1.50;;;15.60;90.10;;;;;;5047133;28;20250;-35
2022/05/31 00:55:08;;;;;;;3.53;1.83;;;15.60;90.10;;;;;;5045435;28;20609;-35
2022/05/31 00:57:41;;;;;;;2.50;1.63;;;15.60;90.10;;;;;;5054374;28;20242;-35
2022/05/31 01:00:13;;;;;;;5.87;2.10;;;15.60;90.10;;;;;;5055543;28;20678;-35
2022/05/31 01:02:42;;;;;;;2.72;1.75;;;15.60;90.10;;;;;;5036288;28;20287;-35
2022/05/31 01:05:11;;;;;;;3.50;2.22;;;15.60;90.10;;;;;;5049465;28;20227;-35
2022/05/31 01:07:41;;;;;;;4.10;2.45;;;15.60;90.10;;;;;;5041312;28;20255;-35
2022/05/31 01:10:13;;;;;;;2.73;2.13;;;15.60;90.20;;;;;;5061238;28;20754;-35
2022/05/31 01:12:42;;;;;;;5.95;2.97;;;15.60;90.20;;;;;;5042946;28;20698;-35
2022/05/31 01:15:11;;;;;;;4.73;3.00;;;15.60;90.20;;;;;;5037349;28;20773;-35
2022/05/31 01:17:42;;;;;;;3.55;2.80;;;15.60;90.20;;;;;;5040339;28;20307;-35
2022/05/31 01:20:16;;;;;;;3.97;2.83;;;15.50;90.20;;;;;;5060086;28;20238;-35
2022/05/31 01:22:56;;;;;;;5.35;3.08;;;15.50;90.20;;;;;;5045234;28;20649;-35
2022/05/31 01:25:52;;;;;;;3.58;2.63;;;15.50;90.30;;;;;;5049993;28;20203;-35
2022/05/31 01:28:29;;;;;;;3.50;2.65;;;15.50;90.30;;;;;;5049837;28;20204;-35
2022/05/31 01:31:24;;;;;;;3.50;2.70;;;15.50;90.30;;;;;;5045751;28;20206;-35
2022/05/31 01:34:00;;;;;;;3.50;2.83;;;15.50;90.30;;;;;;5054848;28;20261;-35
2022/05/31 01:36:36;;;;;;;4.80;3.25;;;15.40;90.20;;;;;;5060574;28;20642;-35
2022/05/31 01:39:10;;;;;;;4.82;2.88;;;15.40;90.20;;;;;;5062213;28;20210;-35
2022/05/31 01:41:54;;;;;;;3.38;2.72;;;15.40;90.30;;;;;;5033442;28;20274;-35
2022/05/31 01:44:35;;;;;;;6.03;3.15;;;15.40;90.30;;;;;;5032384;28;20206;-36
2022/05/31 01:47:04;;;;;;;3.78;2.67;;;15.30;90.20;;;;;;5065755;28;20239;-36
2022/05/31 01:49:36;;;;;;;3.88;2.47;;;15.30;90.20;;;;;;5063666;28;20803;-35
2022/05/31 01:52:07;;;;;;;6.10;3.10;;;15.30;90.30;;;;;;5060693;28;20235;-36
2022/05/31 01:54:35;;;;;;;4.53;2.53;;;15.20;90.30;;;;;;5040251;28;20643;-36
2022/05/31 01:57:10;;;;;;;4.72;2.72;;;15.20;90.30;;;;;;5039088;28;20212;-36
2022/05/31 01:59:43;;;;;;;3.88;2.72;;;15.20;90.40;;;;;;5045286;28;20249;-36
2022/05/31 02:02:15;;;;;;;3.80;2.70;;;15.20;90.40;;;;;;5040458;28;20312;-36
2022/05/31 02:04:43;;;;;;;3.53;2.77;;;15.20;90.40;;;;;;5040685;28;20267;-35
2022/05/31 02:07:17;;;;;;;4.25;2.78;;;15.10;90.40;;;;;;5039587;28;20673;-36
2022/05/31 02:09:47;;;;;;;5.07;2.80;;;15.10;90.50;;;;;;5064269;28;20681;-36
2022/05/31 02:12:21;;;;;;;5.40;3.00;;;15.10;90.40;;;;;;5049685;28;20614;-36
2022/05/31 02:14:48;;;;;;;6.00;2.90;;;15.10;90.40;;;;;;5052627;28;20201;-36
2022/05/31 02:17:20;;;;;;;3.88;2.75;;;15.00;90.50;;;;;;5038520;28;20266;-36
2022/05/31 02:19:48;;;;;;;3.47;2.70;;;15.00;90.50;;;;;;5044865;28;20221;-36
2022/05/31 02:22:20;;;;;;;6.13;3.10;;;15.00;90.50;;;;;;5039409;28;20615;-35
2022/05/31 02:24:50;;;;;;;4.55;2.90;;;15.00;90.60;;;;;;5038151;28;20704;-36
2022/05/31 02:27:18;;;;;;;7.13;3.17;;;15.00;90.60;;;;;;5058431;28;20286;-34
2022/05/31 02:29:45;;;;;;;5.20;3.03;;;14.90;90.60;;;;;;5058262;28;20711;-34
2022/05/31 02:32:14;;;;;;;3.15;2.60;;;14.90;90.60;;;;;;5052952;28;20211;-35
2022/05/31 02:34:49;;;;;;;7.28;3.33;;;14.90;90.60;;;;;;5058808;28;20232;-35
2022/05/31 02:37:19;;;;;;;4.32;2.80;;;14.90;90.80;;;;;;5049666;28;20212;-34
2022/05/31 02:39:47;;;;;;;4.38;2.70;;;14.90;90.70;;;;;;5051830;28;20242;-35
2022/05/31 02:42:15;;;;;;;4.47;2.90;;;14.90;90.70;;;;;;5071076;28;20641;-35
2022/05/31 02:44:43;;;;;;;3.88;2.80;;;14.90;90.70;;;;;;5037916;28;20208;-35
2022/05/31 02:47:11;;;;;;;4.30;2.72;;;14.90;90.70;;;;;;5054192;28;20208;-34
2022/05/31 02:49:40;;;;;;;4.47;2.90;;;14.90;90.80;;;;;;5042780;28;20232;-35
2022/05/31 02:52:07;;;;;;;5.88;2.70;;;14.90;90.80;;;;;;5049302;28;20206;-35
2022/05/31 02:54:37;;;;;;;4.30;2.47;;;14.90;90.80;;;;;;5045178;28;20646;-35
2022/05/31 02:57:09;;;;;;;4.18;2.78;;;14.80;90.80;;;;;;5045443;28;20708;-35
2022/05/31 02:59:36;;;;;;;5.03;2.95;;;14.90;90.80;;;;;;5056490;28;20219;-35
2022/05/31 03:02:03;;;;;;;4.35;2.95;;;14.80;90.80;;;;;;5042196;28;20323;-35
2022/05/31 03:04:31;;;;;;;3.30;2.22;;;14.80;90.80;;;;;;5056342;28;20262;-34
2022/05/31 03:07:02;;;;;;;5.65;2.60;;;14.80;90.80;;;;;;5053283;28;20204;-34
2022/05/31 03:09:31;;;;;;;4.07;2.40;;;14.80;90.80;;;;;;5049486;28;20198;-34
2022/05/31 03:12:11;;;;;;;5.38;2.85;;;14.80;90.90;;;;;;5055020;28;20204;-35
2022/05/31 03:14:50;;;;;;;6.28;2.90;;;14.80;91.30;;;;;;5060500;28;20215;-35
2022/05/31 03:17:27;;;;;;;4.45;2.80;;;14.80;91.00;;;;;;5031195;28;20219;-35
2022/05/31 03:20:04;;;;;;;4.27;2.73;;;14.80;90.90;;;;;;5041291;28;20204;-35
2022/05/31 03:22:37;;;;;;;4.47;2.33;;;14.80;91.00;;;;;;5057432;28;20254;-35
2022/05/31 03:25:10;;;;;;;3.63;2.58;;;14.80;91.00;;;;;;5046723;28;20201;-35
2022/05/31 03:27:38;;;;;;;4.70;2.92;;;14.80;91.10;;;;;;5044932;28;20236;-35
2022/05/31 03:30:06;;;;;;;3.92;2.42;;;14.80;91.00;;;;;;5042038;28;20686;-35
2022/05/31 03:32:35;;;;;;;4.87;2.50;;;14.80;91.10;;;;;;5044493;28;20640;-35
2022/05/31 03:35:08;;;;;;;5.03;3.00;;;14.80;91.10;;;;;;5052258;28;20227;-35
2022/05/31 03:37:41;;;;;;;4.78;2.90;;;14.80;91.10;;;;;;5062605;28;20227;-35
2022/05/31 03:40:09;;;;;;;3.60;2.55;;;14.80;91.20;;;;;;5063743;28;20191;-35
2022/05/31 03:42:38;;;;;;;6.93;2.60;;;14.80;91.20;;;;;;5060811;28;20234;-34
2022/05/31 03:45:09;;;;;;;8.60;3.30;;;14.70;91.10;;;;;;5059236;28;20227;-34
2022/05/31 03:47:36;;;;;;;5.73;2.87;;;14.80;91.20;;;;;;5058912;28;20217;-34
2022/05/31 03:50:03;;;;;;;4.37;2.70;;;14.80;91.30;;;;;;5040755;28;20193;-34
2022/05/31 03:52:34;;;;;;;6.13;2.80;;;14.80;91.30;;;;;;5035946;28;20795;-34
2022/05/31 03:55:03;;;;;;;5.03;3.08;;;14.80;91.30;;;;;;5051704;28;20207;-34
2022/05/31 03:57:30;;;;;;;5.15;3.13;;;14.80;91.40;;;;;;5057830;28;20221;-35
2022/05/31 03:59:58;;;;;;;6.03;3.10;;;14.80;91.40;;;;;;5052188;28;20210;-34
2022/05/31 04:02:25;;;;;;;5.22;3.13;;;14.80;91.40;;;;;;5054940;28;20605;-34
2022/05/31 04:04:54;;;;;;;4.90;3.10;;;14.80;91.40;;;;;;5061389;28;20275;-34
2022/05/31 04:07:27;;;;;;;3.83;2.80;;;14.80;91.50;;;;;;5047842;28;20220;-34
2022/05/31 04:09:56;;;;;;;6.22;3.22;;;14.80;91.50;;;;;;5068330;28;20202;-34
2022/05/31 04:12:25;;;;;;;4.28;2.75;;;14.80;91.50;;;;;;5051306;28;20571;-34
2022/05/31 04:14:53;;;;;;;6.15;3.17;;;14.80;91.40;;;;;;5053957;28;20318;-34
2022/05/31 04:17:20;;;;;;;4.93;2.97;;;14.80;91.40;;;;;;5055274;28;20330;-35
2022/05/31 04:19:50;;;;;;;5.10;3.10;;;14.80;91.40;;;;;;5061379;28;20208;-34
2022/05/31 04:22:21;;;;;;;4.22;2.95;;;14.80;91.50;;;;;;5046231;28;20220;-35
2022/05/31 04:24:53;;;;;;;6.47;3.47;;;14.80;91.50;;;;;;5042495;28;20382;-34
2022/05/31 04:27:21;;;;;;;5.55;3.20;;;14.80;91.50;;;;;;5061321;28;20287;-35
2022/05/31 04:29:48;;;;;;;4.93;2.90;;;14.80;91.50;;;;;;5063509;28;20204;-34
2022/05/31 04:32:18;;;;;;;5.43;2.88;;;14.90;91.60;;;;;;5048610;28;20199;-35
2022/05/31 04:34:50;;;;;;;7.03;3.13;;;14.90;91.60;;;;;;5052062;28;20197;-35
2022/05/31 04:37:17;;;;;;;4.72;3.25;;;14.90;91.60;;;;;;5055073;28;20294;-35
2022/05/31 04:39:45;;;;;;;5.68;3.03;;;14.90;91.60;;;;;;5068569;28;20223;-35
2022/05/31 04:42:16;;;;;;;6.88;3.20;;;14.90;91.60;;;;;;5060603;28;20256;-35
2022/05/31 04:44:43;;;;;;;4.72;2.60;;;15.00;91.70;;;;;;5047197;28;20203;-35
2022/05/31 04:47:10;;;;;;;7.07;2.90;;;15.00;91.70;;;;;;5063180;28;20218;-34
2022/05/31 04:49:42;;;;;;;5.78;2.80;;;15.10;91.80;;;;;;5046214;28;20235;-34
2022/05/31 04:52:09;;;;;;;4.75;3.10;;;15.10;91.90;;;;;;5057866;28;20188;-34
2022/05/31 04:54:41;;;;;;;5.70;3.13;;;15.10;91.90;;;;;;5037190;28;20267;-35
2022/05/31 04:57:08;;;;;;;7.65;3.70;;;15.10;91.90;;;;;;5043687;28;20308;-34
2022/05/31 04:59:36;;;;;;;3.78;2.90;;;15.20;91.90;;;;;;5029458;28;20201;-34
2022/05/31 05:02:03;;;;;;;5.63;3.03;;;15.20;91.90;;;;;;5041944;28;20243;-34
2022/05/31 05:04:30;;;;;;;5.15;3.05;;;15.30;92.00;;;;;;5041537;28;20309;-34
2022/05/31 05:06:58;;;;;;;5.80;3.05;;;15.30;92.00;;;;;;5037868;28;20228;-36
2022/05/31 05:09:25;;;;;;;5.38;3.13;;;15.40;92.00;;;;;;5040692;28;20200;-34
2022/05/31 05:11:52;;;;;;;7.38;3.30;;;15.40;92.00;;;;;;5038827;28;20945;-34
2022/05/31 05:14:19;;;;;;;18.23;5.50;;;15.50;92.10;;;;;;5039645;28;20682;-34
2022/05/31 05:16:49;;;;;;;10.32;4.47;;;15.50;92.00;;;;;;5040446;28;20208;-34
2022/05/31 05:19:16;;;;;;;9.18;3.53;;;15.50;92.10;;;;;;5044639;28;20201;-34
2022/05/31 05:21:44;;;;;;;9.80;3.60;;;15.50;92.00;;;;;;5059153;28;20768;-34
2022/05/31 05:24:13;;;;;;;4.85;3.58;;;15.50;92.10;;;;;;5055517;28;20255;-35
2022/05/31 05:26:41;;;;;;;9.80;3.70;;;15.60;92.10;;;;;;5046671;28;20509;-36
2022/05/31 05:31:57;;;;;;;7.95;4.10;;;15.60;92.10;;;;;;5050491;28;20254;-34
2022/05/31 05:34:27;;;;;;;7.57;3.90;;;15.60;92.10;;;;;;5047894;28;20267;-34
2022/05/31 05:36:56;;;;;;;8.20;3.88;;;15.60;92.10;;;;;;5033277;28;20284;-34
2022/05/31 05:39:23;;;;;;;6.60;3.78;;;15.60;92.10;;;;;;5052820;28;20217;-34
2022/05/31 05:41:53;;;;;;;8.18;3.95;;;15.70;92.20;;;;;;5035449;28;20208;-35
2022/05/31 05:44:24;;;;;;;9.00;4.28;;;15.70;92.20;;;;;;5040636;28;20220;-34
2022/05/31 05:46:51;;;;;;;11.90;4.95;;;15.70;92.20;;;;;;5045357;28;20262;-34
2022/05/31 05:49:21;;;;;;;10.40;4.20;;;15.70;92.20;;;;;;5049996;28;20200;-34
2022/05/31 05:51:49;;;;;;;8.40;3.88;;;15.80;92.20;;;;;;5047834;28;20304;-34
2022/05/31 05:54:16;;;;;;;7.57;3.75;;;15.80;92.20;;;;;;5047540;28;20200;-34
2022/05/31 05:56:43;;;;;;;9.32;4.32;;;15.80;92.20;;;;;;5041692;28;20275;-34
2022/05/31 05:59:10;;;;;;;9.30;4.10;;;15.90;92.30;;;;;;5054539;28;20211;-34
2022/05/31 06:01:55;;;;;;;7.72;3.95;;;15.90;92.30;;;;;;5043052;28;20214;-34
2022/05/31 06:04:52;;;;;;;7.93;3.95;;;16.00;92.40;;;;;;5058935;28;20893;-34
2022/05/31 06:07:27;;;;;;;8.93;4.78;;;16.00;92.40;;;;;;5057563;28;20205;-35
2022/05/31 06:10:16;;;;;;;9.77;5.10;;;16.00;92.30;;;;;;5059983;28;20274;-35
2022/05/31 06:12:51;;;;;;;6.10;4.10;;;16.00;92.30;;;;;;5059196;28;20223;-34
2022/05/31 06:15:22;;;;;;;5.57;4.68;;;16.00;92.40;;;;;;5048950;28;20598;-36
2022/05/31 06:17:53;;;;;;;6.40;4.43;;;16.00;92.30;;;;;;5052766;28;20211;-34
2022/05/31 06:20:24;;;;;;;9.15;4.88;;;16.10;92.70;;;;;;5048259;28;20249;-34
2022/05/31 06:22:52;;;;;;;9.43;5.30;;;16.10;92.40;;;;;;5071164;28;20223;-34
2022/05/31 06:25:20;;;;;;;9.00;5.03;;;16.20;92.50;;;;;;5064858;28;20814;-35
2022/05/31 06:27:48;;;;;;;6.47;4.82;;;16.20;92.50;;;;;;5046486;28;20555;-35
2022/05/31 06:30:15;;;;;;;14.55;5.47;;;16.20;92.50;;;;;;5060673;28;20261;-35
2022/05/31 06:32:42;;;;;;;8.30;4.50;;;16.30;92.60;;;;;;5051733;28;20223;-35
2022/05/31 06:35:10;;;;;;;11.80;5.55;;;16.40;92.60;;;;;;5053774;28;20201;-35
2022/05/31 06:37:37;;;;;;;11.30;4.65;;;16.40;92.60;;;;;;5044511;28;20196;-35
2022/05/31 06:40:08;;;;;;;7.93;5.30;;;16.50;92.70;;;;;;5056003;28;20233;-35
2022/05/31 06:42:36;;;;;;;11.52;5.25;;;16.50;92.70;;;;;;5043294;28;20349;-35
2022/05/31 06:45:03;;;;;;;8.38;4.60;;;16.60;92.80;;;;;;5060784;28;20211;-35
2022/05/31 06:47:31;;;;;;;6.75;4.70;;;16.70;92.90;;;;;;5060583;28;20258;-35
2022/05/31 06:50:00;;;;;;;10.65;5.38;;;16.80;92.90;;;;;;5049480;28;20208;-35
2022/05/31 06:58:00;;;;;;;8.35;4.93;;;17.10;93.10;;;;;;5049296;28;20243;-35
2022/05/31 07:00:29;;;;;;;5.90;4.63;;;17.20;93.20;;;;;;5049909;28;20686;-35
2022/05/31 07:02:59;;;;;;;6.43;4.70;;;17.20;93.20;;;;;;5040859;28;20224;-35
2022/05/31 07:05:27;;;;;;;7.82;4.97;;;17.30;93.20;;;;;;5042380;28;20248;-35
2022/05/31 07:07:54;;;;;;;6.97;5.30;;;17.40;93.20;;;;;;5040198;28;20216;-35
2022/05/31 07:10:22;;;;;;;9.75;4.75;;;17.40;93.20;;;;;;5042884;28;20302;-35
2022/05/31 07:12:54;;;;;;;8.65;5.18;;;17.40;93.20;;;;;;5060798;28;20208;-35
2022/05/31 07:15:21;;;;;;;12.77;4.95;;;17.50;93.60;;;;;;5041545;28;20192;-35
2022/05/31 07:17:53;;;;;;;8.52;5.07;;;17.50;93.30;;;;;;5045764;28;20208;-35
2022/05/31 07:20:25;;;;;;;8.10;5.47;;;17.50;93.30;;;;;;5047406;28;20202;-35
2022/05/31 07:22:52;;;;;;;9.40;5.25;;;17.60;93.30;;;;;;5034962;28;20580;-35
2022/05/31 07:25:24;;;;;;;7.38;5.32;;;17.60;93.30;;;;;;5046235;28;20213;-35
2022/05/31 07:27:54;;;;;;;8.27;5.68;;;17.60;93.30;;;;;;5033563;28;20207;-36
2022/05/31 07:30:21;;;;;;;7.43;5.07;;;17.70;93.30;;;;;;5048416;28;20228;-35
2022/05/31 07:32:48;;;;;;;9.55;5.40;;;17.70;93.30;;;;;;5048411;28;20204;-35
2022/05/31 07:35:39;;;;;;;7.13;5.22;;;17.70;93.20;;;;;;5049669;28;20208;-36
2022/05/31 07:38:08;;;;;;;15.27;6.10;;;17.70;93.20;;;;;;5047959;28;20223;-36
2022/05/31 07:40:35;;;;;;;20.38;6.78;;;17.70;93.20;;;;;;5040361;28;20204;-35
2022/05/31 07:43:03;;;;;;;9.75;5.63;;;17.70;93.20;;;;;;5047898;28;20221;-35
2022/05/31 07:45:30;;;;;;;8.35;5.38;;;17.70;93.10;;;;;;5039263;28;20282;-36
2022/05/31 07:47:57;;;;;;;7.28;4.80;;;17.70;93.10;;;;;;5028962;28;20205;-35
2022/05/31 07:50:24;;;;;;;8.40;4.88;;;17.70;93.10;;;;;;5040720;28;20295;-36
2022/05/31 07:52:52;;;;;;;9.57;4.47;;;17.70;93.10;;;;;;5049307;28;20644;-36
2022/05/31 07:55:19;;;;;;;8.57;4.50;;;17.70;93.10;;;;;;5045198;28;20203;-36
2022/05/31 08:00:37;;;;;;;6.47;3.92;;;17.70;93.10;;;;;;5031875;28;20300;-36
2022/05/31 08:03:08;;;;;;;9.25;4.30;;;17.70;93.40;;;;;;5052239;28;20207;-36
2022/05/31 08:05:43;;;;;;;12.25;4.60;;;17.80;93.20;;;;;;5054701;28;20753;-36
2022/05/31 08:08:11;;;;;;;10.70;3.90;;;17.80;93.20;;;;;;5049117;28;20258;-36
2022/05/31 08:11:06;;;;;;;10.38;4.60;;;17.80;93.20;;;;;;5049077;28;20699;-35
2022/05/31 08:13:34;;;;;;;7.70;4.25;;;17.90;93.30;;;;;;5037218;28;20205;-36
2022/05/31 08:16:03;;;;;;;5.88;4.18;;;17.90;93.30;;;;;;5048446;28;20208;-36
2022/05/31 08:18:32;;;;;;;5.15;4.00;;;17.90;93.10;;;;;;5048244;28;20298;-35
2022/05/31 08:21:04;;;;;;;8.52;3.80;;;17.90;93.10;;;;;;5040469;28;20240;-35
2022/05/31 08:23:32;;;;;;;9.23;4.50;;;17.90;93.20;;;;;;5053786;28;20214;-35
2022/05/31 08:26:01;;;;;;;7.35;4.45;;;17.90;93.20;;;;;;5049021;28;20203;-35
2022/05/31 08:28:29;;;;;;;8.20;4.25;;;18.00;93.20;;;;;;5049585;28;20215;-35
2022/05/31 08:31:02;;;;;;;7.18;4.22;;;18.00;93.10;;;;;;5031705;28;20794;-35
2022/05/31 08:33:29;;;;;;;5.82;3.83;;;18.00;93.10;;;;;;5031534;28;20579;-35
2022/05/31 08:35:56;;;;;;;7.03;4.18;;;18.00;93.20;;;;;;5028760;28;20212;-36
2022/05/31 08:38:30;;;;;;;5.72;4.05;;;18.00;93.10;;;;;;5029105;28;20705;-36
2022/05/31 08:41:00;;;;;;;8.48;3.72;;;18.10;93.10;;;;;;5031625;28;20197;-37
2022/05/31 08:43:47;;;;;;;12.85;3.40;;;18.00;93.00;;;;;;5040365;28;20265;-36
2022/05/31 08:46:40;;;;;;;6.30;3.28;;;18.10;93.10;;;;;;5044651;28;20200;-36
2022/05/31 08:49:14;;;;;;;7.30;3.22;;;18.10;93.10;;;;;;5026630;28;20509;-35
2022/05/31 08:52:05;;;;;;;8.88;3.78;;;18.10;93.10;;;;;;5043638;28;20196;-35
2022/05/31 08:57:38;;;;;;;6.68;3.30;;;18.20;93.10;;;;;;5028864;28;20197;-35
2022/05/31 09:00:26;;;;;;;8.90;3.40;;;18.20;93.10;;;;;;5054711;28;20229;-36
2022/05/31 09:03:34;;;;;;;6.38;3.63;;;18.20;93.10;;;;;;5048637;28;20781;-35
2022/05/31 09:06:07;;;;;;;14.52;4.30;;;18.30;93.00;;;;;;5039437;28;20323;-35
2022/05/31 09:08:44;;;;;;;7.05;4.18;;;18.30;92.90;;;;;;5028890;28;20205;-36
2022/05/31 09:11:59;;;;;;;6.90;3.30;;;18.30;92.80;;;;;;5047294;28;20204;-35
2022/05/31 09:14:56;;;;;;;5.70;3.10;;;18.30;92.90;;;;;;5051395;28;20214;-35
2022/05/31 09:17:32;;;;;;;3.70;2.47;;;18.30;92.60;;;;;;5047489;28;20380;-35
2022/05/31 09:20:12;;;;;;;7.22;2.85;;;18.30;92.70;;;;;;5059647;28;20640;-36
2022/05/31 09:22:44;;;;;;;5.05;2.58;;;18.30;92.60;;;;;;5027951;28;20239;-35
2022/05/31 09:25:13;;;;;;;5.40;2.72;;;18.30;92.70;;;;;;5039254;28;20662;-36
2022/05/31 09:27:44;;;;;;;14.18;2.40;;;18.30;92.50;;;;;;5051424;28;20278;-37
2022/05/31 09:30:33;;;;;;;5.32;2.83;;;18.30;92.60;;;;;;5045944;28;20232;-37
2022/05/31 09:33:24;;;;;;;9.68;3.28;;;18.40;92.70;;;;;;5045677;28;20195;-37
2022/05/31 09:36:16;;;;;;;11.40;3.15;;;18.40;92.70;;;;;;5054776;28;20195;-37
2022/05/31 09:38:53;;;;;;;3.92;2.80;;;18.50;92.70;;;;;;5038705;28;20599;-37
2022/05/31 09:41:26;;;;;;;4.43;2.78;;;18.60;92.70;;;;;;5032270;28;20209;-37
2022/05/31 09:44:10;;;;;;;7.22;3.10;;;18.60;92.50;;;;;;5045424;28;20228;-37
2022/05/31 09:47:04;;;;;;;4.13;2.33;;;18.70;92.70;;;;;;5047314;28;20678;-37
2022/05/31 09:49:40;;;;;;;3.67;2.33;;;18.80;92.70;;;;;;5047232;28;20609;-37
2022/05/31 09:52:30;;;;;;;3.40;2.63;;;18.80;92.80;;;;;;5047617;28;20215;-37
2022/05/31 09:58:17;;;;;;;2.80;2.30;;;19.00;92.90;;;;;;5045292;28;20263;-37
2022/05/31 10:01:19;;;;;;;7.20;2.50;;;19.00;92.90;;;;;;5045657;28;20208;-37
2022/05/31 10:03:59;;;;;;;7.32;3.60;;;19.10;92.90;;;;;;5042377;28;20327;-37
2022/05/31 10:06:30;;;;;;;6.85;2.63;;;19.10;92.90;;;;;;5046144;28;20228;-37
2022/05/31 10:09:15;;;;;;;9.65;3.65;;;19.10;92.90;;;;;;5028244;28;20219;-37
2022/05/31 10:11:45;;;;;;;7.13;3.20;;;19.20;92.80;;;;;;5030277;28;20208;-37
2022/05/31 10:14:25;;;;;;;6.68;2.92;;;19.20;92.80;;;;;;5041020;28;20302;-36
2022/05/31 10:16:54;;;;;;;4.05;2.70;;;19.20;92.80;;;;;;5037048;28;20224;-36
2022/05/31 10:19:28;;;;;;;6.60;3.30;;;19.20;92.80;;;;;;5036764;28;20231;-37
2022/05/31 10:21:57;;;;;;;5.10;3.25;;;19.20;92.70;;;;;;5040210;28;20690;-37
2022/05/31 10:24:28;;;;;;;5.18;3.00;;;19.30;92.10;;;;;;5043849;28;20234;-36
2022/05/31 10:27:14;;;;;;;8.30;2.45;;;19.30;92.20;;;;;;5042438;28;20511;-36
2022/05/31 10:29:53;;;;;;;6.43;3.10;;;19.30;92.60;;;;;;5027442;28;20679;-36
2022/05/31 10:32:34;;;;;;;5.13;2.75;;;19.30;92.90;;;;;;5039519;28;20265;-37
2022/05/31 10:35:20;;;;;;;7.03;2.85;;;19.40;93.20;;;;;;5061760;28;20548;-37
2022/05/31 10:38:01;;;;;;;3.70;2.40;;;19.50;92.90;;;;;;5055176;28;20720;-37
2022/05/31 10:40:34;;;;;;;3.75;2.38;;;19.50;92.90;;;;;;5062979;28;20236;-37
2022/05/31 10:43:19;;;;;;;6.20;2.40;;;19.50;92.10;;;;;;5045998;28;20216;-37
2022/05/31 10:45:53;;;;;;;5.15;2.00;;;19.60;92.60;;;;;;5038040;28;20745;-35
2022/05/31 10:48:20;;;;;;;3.33;1.70;;;19.70;92.80;;;;;;5047626;28;20227;-36
2022/05/31 10:51:21;;;;;;;3.30;1.50;;;19.70;92.80;;;;;;5045870;28;20197;-37
2022/05/31 10:54:03;;;;;;;2.15;1.50;;;19.80;92.80;;;;;;5039029;28;20211;-37
2022/05/31 10:57:12;;;;;;;3.83;1.63;;;19.80;92.70;;;;;;5039157;28;20228;-36
2022/05/31 10:59:48;;;;;;;4.80;1.48;;;19.90;92.90;;;;;;5061074;28;20207;-37
2022/05/31 11:02:21;;;;;;;8.93;2.50;;;19.90;92.80;;;;;;5051934;28;20203;-37
2022/05/31 11:05:15;;;;;;;2.95;2.25;;;20.00;92.90;;;;;;5059882;28;20736;-37
2022/05/31 11:14:07;;;;;;;2.33;1.52;;;20.20;92.30;;;;;;5034932;28;20269;-37
2022/05/31 11:16:43;;;;;;;15.43;1.90;;;20.30;92.50;;;;;;5036244;28;20646;-37
2022/05/31 11:19:33;;;;;;;5.60;1.50;;;20.30;92.60;;;;;;5035362;28;20200;-37
2022/05/31 11:22:27;;;;;;;6.10;2.13;;;20.40;92.80;;;;;;5057745;28;20693;-37
2022/05/31 11:25:13;;;;;;;10.93;1.60;;;20.40;92.30;;;;;;5037901;28;20224;-37
2022/05/31 11:27:47;;;;;;;10.05;1.67;;;20.50;92.00;;;;;;5047060;28;20628;-37
2022/05/31 11:30:27;;;;;;;4.88;1.30;;;20.50;92.10;;;;;;5040573;28;20739;-37
2022/05/31 11:33:06;;;;;;;6.97;1.00;;;20.60;91.80;;;;;;5056696;28;20663;-37
2022/05/31 11:35:52;;;;;;;2.92;1.25;;;20.60;92.30;;;;;;5049609;28;20639;-37
2022/05/31 11:38:40;;;;;;;1.60;0.85;;;20.60;92.50;;;;;;5034879;28;20216;-37
2022/05/31 11:41:33;;;;;;;5.35;1.10;;;20.70;92.40;;;;;;5049478;28;20256;-36
2022/05/31 11:44:36;;;;;;;7.05;1.25;;;20.80;91.50;;;;;;5038661;28;20225;-35
2022/05/31 11:47:34;;;;;;;3.70;1.00;;;20.80;91.60;;;;;;5062267;28;20294;-35
2022/05/31 11:50:44;;;;;;;14.00;2.00;;;20.90;92.00;;;;;;5057959;28;20499;-35
2022/05/31 11:53:23;;;;;;;4.55;1.17;;;20.90;91.20;;;;;;5048966;28;20678;-36
2022/05/31 11:56:17;;;;;;;3.78;1.00;;;20.90;91.80;;;;;;5039567;28;20203;-36
2022/05/31 11:58:50;;;;;;;2.85;0.90;;;20.90;91.50;;;;;;5046540;28;20231;-35
2022/05/31 12:01:19;;;;;;;3.47;1.00;;;20.90;91.50;;;;;;5050674;28;20266;-35
2022/05/31 12:04:17;;;;;;;3.85;0.98;;;21.00;90.90;;;;;;5050673;28;20242;-35
2022/05/31 12:06:53;;;;;;;3.78;1.05;;;21.00;91.70;;;;;;5034153;28;20550;-37
2022/05/31 12:09:35;;;;;;;1.92;1.15;;;21.10;91.30;;;;;;5062740;28;20226;-37
2022/05/31 12:12:10;;;;;;;1.45;0.93;;;21.10;91.50;;;;;;5043631;28;20562;-37
2022/05/31 12:14:44;;;;;;;2.30;0.80;;;21.20;91.80;;;;;;5048864;28;20204;-37
2022/05/31 12:17:16;;;;;;;1.63;0.80;;;21.20;91.80;;;;;;5047542;28;20305;-37
2022/05/31 12:20:19;;;;;;;1.27;0.77;;;21.30;91.80;;;;;;5047588;28;20212;-37
2022/05/31 12:23:33;;;;;;;1.35;0.77;;;21.40;92.00;;;;;;5047223;28;20260;-37
2022/05/31 12:26:04;;;;;;;2.95;1.05;;;21.50;91.90;;;;;;5048792;28;20651;-35
2022/05/31 12:28:38;;;;;;;4.65;1.00;;;21.50;91.70;;;;;;5043474;28;20276;-37
2022/05/31 12:31:28;;;;;;;2.63;1.00;;;21.60;91.00;;;;;;5035229;28;20276;-37
2022/05/31 12:34:31;;;;;;;2.58;0.98;;;21.60;91.10;;;;;;5052714;28;20568;-37
2022/05/31 12:37:03;;;;;;;2.55;1.08;;;21.60;90.20;;;;;;5064707;28;20210;-35
2022/05/31 12:39:33;;;;;;;4.55;1.02;;;21.70;90.90;;;;;;5068186;28;20532;-35
2022/05/31 12:42:12;;;;;;;2.15;0.80;;;21.70;91.40;;;;;;5054757;28;20259;-36
2022/05/31 12:44:43;;;;;;;2.75;1.05;;;21.70;91.50;;;;;;5038996;28;20725;-35
2022/05/31 12:47:29;;;;;;;2.33;1.00;;;21.80;91.60;;;;;;5063965;28;20647;-35
2022/05/31 12:50:04;;;;;;;2.40;1.00;;;21.80;90.90;;;;;;5046412;28;20212;-35
2022/05/31 12:55:36;;;;;;;2.05;0.90;;;22.00;91.80;;;;;;5044670;28;20205;-36
2022/05/31 12:58:31;;;;;;;4.05;1.20;;;22.00;90.90;;;;;;5028028;28;20618;-36
2022/05/31 13:01:12;;;;;;;2.60;0.93;;;22.00;90.90;;;;;;5066711;28;20216;-36
2022/05/31 13:03:42;;;;;;;1.50;0.80;;;22.00;90.90;;;;;;5039554;28;20208;-35
2022/05/31 13:06:42;;;;;;;3.42;0.80;;;22.00;91.00;;;;;;5052063;28;20228;-36
2022/05/31 13:09:32;;;;;;;5.30;1.00;;;22.00;91.20;;;;;;5027914;28;20201;-35
2022/05/31 13:20:39;;;;;;;2.33;0.93;;;22.00;91.10;;;;;;5051074;28;20269;-37
2022/05/31 13:23:07;;;;;;;3.83;1.00;;;22.00;91.00;;;;;;5055009;28;20234;-35
2022/05/31 13:25:53;;;;;;;4.28;1.27;;;22.10;91.00;;;;;;5049530;28;20256;-35
2022/05/31 13:28:36;;;;;;;2.50;1.40;;;22.10;90.70;;;;;;5048035;28;20224;-35
2022/05/31 13:31:21;;;;;;;2.38;0.90;;;22.20;90.80;;;;;;5047382;28;20207;-35
2022/05/31 13:34:00;;;;;;;2.28;0.90;;;22.30;91.20;;;;;;5034976;28;20208;-35
2022/05/31 13:36:42;;;;;;;4.40;1.15;;;22.40;90.40;;;;;;5032846;28;20563;-35
2022/05/31 13:39:13;;;;;;;5.90;1.38;;;22.40;90.10;;;;;;5050828;28;20254;-35
2022/05/31 13:41:47;;;;;;;2.50;1.27;;;22.40;90.30;;;;;;5037764;28;20261;-35
2022/05/31 13:44:20;;;;;;;7.95;1.23;;;22.40;90.20;;;;;;5033453;28;20203;-35
2022/05/31 13:46:49;;;;;;;6.85;1.52;;;22.50;90.30;;;;;;5057629;28;20213;-35
2022/05/31 13:49:30;;;;;;;2.55;1.15;;;22.50;90.00;;;;;;5043445;28;20240;-35
2022/05/31 13:52:03;;;;;;;3.40;1.08;;;22.60;90.30;;;;;;5062710;28;20684;-35
2022/05/31 13:54:41;;;;;;;2.63;1.00;;;22.60;90.30;;;;;;5044802;28;20213;-35
2022/05/31 13:57:14;;;;;;;6.75;1.30;;;22.60;90.50;;;;;;5041645;28;20277;-35
2022/05/31 13:59:48;;;;;;;4.53;1.25;;;22.70;88.80;;;;;;5046741;28;20200;-35